Time;durP1;ratioP1;P1;durP2;ratioP2;P2;SDS_P1;SDS_P2;PMS_P1;PMS_P2;Temp;Humidity;BMP_temperature;BMP_pressure;BME280_temperature;BME280_humidity;BME280_pressure;Samples;Min_cycle;Max_cycle;Signal;HPM_P1;HPM_P2
2022/07/24 00:01:28;;;;;;;0.00;0.00;;;16.80;99.90;;;;;;5039546;28;20099;-78
2022/07/24 00:03:54;;;;;;;0.00;0.00;;;16.80;99.90;;;;;;5039621;28;20064;-78
2022/07/24 00:06:20;;;;;;;0.00;0.00;;;16.70;99.90;;;;;;5039575;28;20061;-78
2022/07/24 00:08:46;;;;;;;0.00;0.00;;;16.70;99.90;;;;;;5039483;28;20110;-78
2022/07/24 00:11:11;;;;;;;0.00;0.00;;;16.70;99.90;;;;;;5055842;28;20049;-78
2022/07/24 00:13:37;;;;;;;0.10;0.10;;;16.80;99.90;;;;;;5039365;28;20111;-78
2022/07/24 00:16:03;;;;;;;0.00;0.00;;;16.60;99.90;;;;;;5055922;28;20041;-78
2022/07/24 00:18:29;;;;;;;0.00;0.00;;;16.60;99.90;;;;;;5056113;28;20053;-78
2022/07/24 00:20:55;;;;;;;0.00;0.00;;;16.60;99.90;;;;;;5055779;28;20040;-79
2022/07/24 00:23:22;;;;;;;0.00;0.00;;;16.60;99.90;;;;;;5055656;28;20037;-78
2022/07/24 00:25:48;;;;;;;0.00;0.00;;;16.60;99.90;;;;;;5055544;28;20447;-78
2022/07/24 00:28:14;;;;;;;0.00;0.00;;;16.60;99.90;;;;;;5039241;28;20049;-79
2022/07/24 00:30:39;;;;;;;0.00;0.00;;;16.70;99.90;;;;;;5038963;28;20056;-79
2022/07/24 00:33:05;;;;;;;0.00;0.00;;;16.60;99.90;;;;;;5055562;28;20049;-79
2022/07/24 00:35:31;;;;;;;0.52;0.00;;;16.40;99.90;;;;;;5055563;28;20045;-79
2022/07/24 00:37:57;;;;;;;0.00;0.00;;;16.50;99.90;;;;;;5055343;28;20520;-79
2022/07/24 00:40:24;;;;;;;0.00;0.00;;;16.50;99.90;;;;;;5038625;28;20080;-79
2022/07/24 00:42:50;;;;;;;0.00;0.00;;;16.40;99.90;;;;;;5038621;28;20140;-79
2022/07/24 00:45:16;;;;;;;0.00;0.00;;;16.40;99.90;;;;;;5055320;28;20529;-78
2022/07/24 00:47:42;;;;;;;0.30;0.22;;;16.40;99.90;;;;;;5055179;28;20045;-79
2022/07/24 00:50:08;;;;;;;2.63;0.47;;;16.30;99.90;;;;;;5037419;28;20396;-79
2022/07/24 00:52:34;;;;;;;0.10;0.10;;;16.30;99.90;;;;;;5055231;28;20411;-79
2022/07/24 00:55:00;;;;;;;0.00;0.00;;;16.30;99.90;;;;;;5055091;28;20128;-79
2022/07/24 00:57:25;;;;;;;0.10;0.10;;;16.20;99.90;;;;;;5038158;28;20053;-79
2022/07/24 00:59:51;;;;;;;0.00;0.00;;;16.40;99.90;;;;;;5038380;28;20642;-79
2022/07/24 01:02:17;;;;;;;0.65;0.00;;;16.30;99.90;;;;;;5054982;28;20044;-79
2022/07/24 01:04:43;;;;;;;0.10;0.10;;;16.30;99.90;;;;;;5054902;28;20053;-79
2022/07/24 01:07:08;;;;;;;0.00;0.00;;;16.40;99.90;;;;;;5054856;28;20041;-79
2022/07/24 01:09:34;;;;;;;0.00;0.00;;;16.30;99.90;;;;;;5054853;28;20052;-79
2022/07/24 01:12:02;;;;;;;0.00;0.00;;;16.20;99.90;;;;;;5038252;28;20049;-79
2022/07/24 01:14:30;;;;;;;0.00;0.00;;;16.40;99.90;;;;;;5038433;28;20061;-78
2022/07/24 01:16:56;;;;;;;0.10;0.00;;;16.20;99.90;;;;;;5055296;28;20049;-78
2022/07/24 01:19:22;;;;;;;0.03;0.00;;;16.10;99.90;;;;;;5054981;28;20064;-78
2022/07/24 01:21:49;;;;;;;0.00;0.00;;;16.10;99.90;;;;;;5054443;28;20370;-78
2022/07/24 01:24:15;;;;;;;0.00;0.00;;;16.20;99.90;;;;;;5037940;28;20041;-79
2022/07/24 01:26:41;;;;;;;0.00;0.00;;;16.00;99.90;;;;;;5055137;28;20056;-79
2022/07/24 01:29:07;;;;;;;0.00;0.00;;;16.10;99.90;;;;;;5054869;28;20047;-79
2022/07/24 01:31:33;;;;;;;0.00;0.00;;;16.00;99.90;;;;;;5038193;28;20049;-79
2022/07/24 01:33:59;;;;;;;0.00;0.00;;;16.10;99.90;;;;;;5054617;28;20050;-79
2022/07/24 01:36:24;;;;;;;0.03;0.00;;;16.00;99.90;;;;;;5054335;28;20393;-79
2022/07/24 01:38:50;;;;;;;0.00;0.00;;;16.10;99.90;;;;;;5054093;28;20037;-79
2022/07/24 01:41:16;;;;;;;0.00;0.00;;;15.90;99.90;;;;;;5038108;28;20041;-79
2022/07/24 01:43:41;;;;;;;0.17;0.17;;;15.90;99.90;;;;;;5054597;28;20559;-79
2022/07/24 01:46:07;;;;;;;0.55;0.35;;;16.00;99.90;;;;;;5054060;28;20048;-79
2022/07/24 01:48:33;;;;;;;0.47;0.10;;;16.10;99.90;;;;;;5054036;28;20084;-79
2022/07/24 01:50:59;;;;;;;0.00;0.00;;;15.80;99.90;;;;;;5037607;28;20049;-79
2022/07/24 01:53:25;;;;;;;0.00;0.00;;;15.90;99.90;;;;;;5037520;28;20057;-79
2022/07/24 01:55:52;;;;;;;0.00;0.00;;;15.90;99.90;;;;;;5053742;28;20459;-79
2022/07/24 01:58:18;;;;;;;0.00;0.00;;;15.90;99.90;;;;;;5036964;28;20057;-79
2022/07/24 02:00:43;;;;;;;0.00;0.00;;;15.80;99.90;;;;;;5053452;28;20048;-79
2022/07/24 02:03:09;;;;;;;0.00;0.00;;;15.90;99.90;;;;;;5054442;28;20114;-78
2022/07/24 02:05:34;;;;;;;0.00;0.00;;;16.00;99.90;;;;;;5037196;28;20124;-78
2022/07/24 02:08:00;;;;;;;0.40;0.10;;;16.00;99.90;;;;;;5037248;28;20140;-79
2022/07/24 02:10:28;;;;;;;0.15;0.15;;;16.00;99.90;;;;;;5054207;28;20045;-79
2022/07/24 02:12:54;;;;;;;0.13;0.13;;;15.80;99.90;;;;;;5054135;28;20119;-79
2022/07/24 02:15:20;;;;;;;2.53;0.17;;;16.00;99.90;;;;;;5053945;28;20067;-79
2022/07/24 02:17:51;;;;;;;0.00;0.00;;;16.00;99.90;;;;;;5053553;28;20482;-79
2022/07/24 02:20:17;;;;;;;0.00;0.00;;;16.10;99.90;;;;;;5036994;28;20132;-79
2022/07/24 02:22:43;;;;;;;0.00;0.00;;;16.00;99.90;;;;;;5036537;28;20040;-79
2022/07/24 02:25:10;;;;;;;0.10;0.10;;;16.20;99.90;;;;;;5053616;28;20539;-79
2022/07/24 02:27:36;;;;;;;0.00;0.00;;;15.90;99.90;;;;;;5053370;28;20048;-79
2022/07/24 02:30:04;;;;;;;0.00;0.00;;;15.90;99.90;;;;;;5036813;28;20040;-79
2022/07/24 02:32:29;;;;;;;0.00;0.00;;;15.90;99.90;;;;;;5053518;28;20076;-79
2022/07/24 02:34:55;;;;;;;0.00;0.00;;;15.90;99.90;;;;;;5053149;28;20515;-78
2022/07/24 02:37:21;;;;;;;1.13;0.00;;;15.90;99.90;;;;;;5036530;28;20132;-78
2022/07/24 02:39:46;;;;;;;0.00;0.00;;;15.90;99.90;;;;;;5052927;28;20041;-78
2022/07/24 02:42:12;;;;;;;0.00;0.00;;;15.90;99.90;;;;;;5036359;28;20041;-78
2022/07/24 02:44:37;;;;;;;0.00;0.00;;;15.90;99.90;;;;;;5036721;28;20053;-78
2022/07/24 02:47:03;;;;;;;0.00;0.00;;;15.90;99.90;;;;;;5053043;28;20048;-78
2022/07/24 02:49:29;;;;;;;0.00;0.00;;;15.90;99.90;;;;;;5052801;28;20041;-78
2022/07/24 02:51:54;;;;;;;0.00;0.00;;;16.20;99.90;;;;;;5052961;28;20045;-78
2022/07/24 02:54:20;;;;;;;0.00;0.00;;;16.00;99.90;;;;;;5053017;28;20045;-78
2022/07/24 02:56:46;;;;;;;0.00;0.00;;;15.80;99.90;;;;;;5052879;28;20052;-78
2022/07/24 02:59:12;;;;;;;0.00;0.00;;;16.20;99.90;;;;;;5052917;28;20041;-78
2022/07/24 03:01:38;;;;;;;0.00;0.00;;;15.80;99.90;;;;;;5035980;28;20037;-78
2022/07/24 03:04:03;;;;;;;0.00;0.00;;;15.80;99.90;;;;;;5036305;28;20064;-78
2022/07/24 03:06:29;;;;;;;0.00;0.00;;;15.70;99.90;;;;;;5052801;28;20044;-78
2022/07/24 03:08:55;;;;;;;0.00;0.00;;;15.80;99.90;;;;;;5053248;28;20136;-78
2022/07/24 03:11:20;;;;;;;0.38;0.10;;;15.90;99.90;;;;;;5052813;28;20424;-78
2022/07/24 03:13:46;;;;;;;0.00;0.00;;;15.80;99.90;;;;;;5052031;28;20106;-78
2022/07/24 03:16:12;;;;;;;0.00;0.00;;;15.80;99.90;;;;;;5036142;28;20131;-78
2022/07/24 03:18:37;;;;;;;0.00;0.00;;;15.60;99.90;;;;;;5052623;28;20094;-78
2022/07/24 03:21:03;;;;;;;0.00;0.00;;;15.40;99.90;;;;;;5053140;28;20126;-78
2022/07/24 03:23:29;;;;;;;0.00;0.00;;;15.50;99.90;;;;;;5052082;28;20055;-78
2022/07/24 03:25:54;;;;;;;0.00;0.00;;;15.40;99.90;;;;;;5052968;28;20063;-78
2022/07/24 03:28:20;;;;;;;0.00;0.00;;;15.40;99.90;;;;;;5035200;28;20061;-78
2022/07/24 03:30:46;;;;;;;0.00;0.00;;;15.40;99.90;;;;;;5033967;28;20061;-78
2022/07/24 03:33:12;;;;;;;0.00;0.00;;;15.40;99.90;;;;;;5050273;28;20412;-78
2022/07/24 03:35:37;;;;;;;0.00;0.00;;;15.40;99.90;;;;;;5051710;28;20048;-78
2022/07/24 03:38:03;;;;;;;0.00;0.00;;;15.40;99.90;;;;;;5051614;28;20099;-78
2022/07/24 03:40:29;;;;;;;0.08;0.05;;;15.30;99.90;;;;;;5051578;28;20060;-78
2022/07/24 03:42:54;;;;;;;0.10;0.10;;;15.30;99.90;;;;;;5051168;28;20052;-78
2022/07/24 03:45:20;;;;;;;0.00;0.00;;;15.30;99.90;;;;;;5035282;28;20132;-78
2022/07/24 03:47:46;;;;;;;0.20;0.15;;;15.30;99.90;;;;;;5035663;28;20041;-78
2022/07/24 03:50:11;;;;;;;0.10;0.10;;;15.30;99.90;;;;;;5051992;28;20477;-79
2022/07/24 03:52:37;;;;;;;0.00;0.00;;;15.40;99.90;;;;;;5035912;28;20144;-79
2022/07/24 03:55:04;;;;;;;0.00;0.00;;;15.40;99.90;;;;;;5035925;28;20057;-79
2022/07/24 03:57:29;;;;;;;0.00;0.00;;;15.40;99.90;;;;;;5051951;28;20100;-78
2022/07/24 03:59:55;;;;;;;0.00;0.00;;;15.40;99.90;;;;;;5052245;28;20088;-79
2022/07/24 04:02:21;;;;;;;0.00;0.00;;;15.40;99.90;;;;;;5051911;28;20037;-78
2022/07/24 04:04:47;;;;;;;0.00;0.00;;;15.40;99.90;;;;;;5052873;28;20443;-79
2022/07/24 04:07:12;;;;;;;0.00;0.00;;;15.50;99.90;;;;;;5052085;28;20040;-78
2022/07/24 04:09:38;;;;;;;0.00;0.00;;;15.40;99.90;;;;;;5052061;28;20469;-78
2022/07/24 04:12:04;;;;;;;0.00;0.00;;;15.40;99.90;;;;;;5035851;28;20053;-78
2022/07/24 04:14:29;;;;;;;0.00;0.00;;;15.40;99.90;;;;;;5052185;28;20049;-79
2022/07/24 04:16:55;;;;;;;0.00;0.00;;;15.50;99.90;;;;;;5052029;28;20045;-79
2022/07/24 04:19:21;;;;;;;0.32;0.00;;;15.50;99.90;;;;;;5035632;28;20064;-78
2022/07/24 04:21:47;;;;;;;0.00;0.00;;;15.50;99.90;;;;;;5051842;28;20037;-78
2022/07/24 04:24:12;;;;;;;0.00;0.00;;;15.50;99.90;;;;;;5053742;28;20528;-78
2022/07/24 04:26:38;;;;;;;0.00;0.00;;;15.50;99.90;;;;;;5055736;28;20044;-78
2022/07/24 04:29:04;;;;;;;0.00;0.00;;;15.50;99.90;;;;;;5055654;28;20377;-79
2022/07/24 04:31:29;;;;;;;0.00;0.00;;;15.50;99.90;;;;;;5055274;28;20491;-78
2022/07/24 04:33:55;;;;;;;0.00;0.00;;;15.60;99.90;;;;;;5055274;28;20049;-78
2022/07/24 04:36:21;;;;;;;0.00;0.00;;;15.60;99.90;;;;;;5039060;28;20056;-78
2022/07/24 04:38:46;;;;;;;0.00;0.00;;;15.70;99.90;;;;;;5038628;28;20149;-78
2022/07/24 04:41:12;;;;;;;0.00;0.00;;;15.70;99.90;;;;;;5055109;28;20041;-78
2022/07/24 04:43:38;;;;;;;0.03;0.03;;;15.70;99.90;;;;;;5038818;28;20044;-79
2022/07/24 04:46:04;;;;;;;0.00;0.00;;;15.80;99.90;;;;;;5055208;28;20049;-79
2022/07/24 04:48:29;;;;;;;0.00;0.00;;;15.80;99.90;;;;;;5055223;28;20052;-78
2022/07/24 04:50:55;;;;;;;0.00;0.00;;;15.80;99.90;;;;;;5055204;28;20052;-78
2022/07/24 04:53:21;;;;;;;0.00;0.00;;;15.80;99.90;;;;;;5055619;28;20094;-78
2022/07/24 04:55:46;;;;;;;0.00;0.00;;;15.90;99.90;;;;;;5055300;28;20037;-78
2022/07/24 04:58:12;;;;;;;0.00;0.00;;;15.90;99.90;;;;;;5054662;28;20103;-78
2022/07/24 05:00:38;;;;;;;0.05;0.05;;;15.90;99.90;;;;;;5038490;28;20370;-79
2022/07/24 05:03:03;;;;;;;0.00;0.00;;;16.00;99.90;;;;;;5054654;28;20051;-78
2022/07/24 05:05:29;;;;;;;0.00;0.00;;;16.10;99.90;;;;;;5055029;28;20045;-78
2022/07/24 05:07:54;;;;;;;0.00;0.00;;;16.10;99.90;;;;;;5054946;28;20093;-78
2022/07/24 05:10:20;;;;;;;0.00;0.00;;;16.10;99.90;;;;;;5038446;28;20481;-79
2022/07/24 05:12:46;;;;;;;0.38;0.20;;;16.20;99.90;;;;;;5038211;28;20052;-78
2022/07/24 05:15:11;;;;;;;0.20;0.00;;;16.30;99.90;;;;;;5054701;28;20067;-79
2022/07/24 05:17:37;;;;;;;0.00;0.00;;;16.40;99.90;;;;;;5054478;28;20111;-78
2022/07/24 05:20:05;;;;;;;0.00;0.00;;;16.20;99.90;;;;;;5038093;28;20455;-78
2022/07/24 05:22:31;;;;;;;0.05;0.00;;;16.30;99.90;;;;;;5054243;28;20072;-78
2022/07/24 05:24:56;;;;;;;0.00;0.00;;;16.40;99.90;;;;;;5088130;28;20111;-78
2022/07/24 05:27:22;;;;;;;0.00;0.00;;;16.40;99.90;;;;;;5071255;28;20502;-78
2022/07/24 05:29:48;;;;;;;0.00;0.00;;;16.50;99.90;;;;;;5071240;28;20041;-78
2022/07/24 05:32:13;;;;;;;0.00;0.00;;;16.60;99.90;;;;;;5071380;28;20098;-78
2022/07/24 05:34:39;;;;;;;0.08;0.00;;;16.70;99.90;;;;;;5088255;28;20374;-78
2022/07/24 05:37:05;;;;;;;0.00;0.00;;;16.90;99.90;;;;;;5087646;28;20067;-78
2022/07/24 05:39:31;;;;;;;0.38;0.00;;;17.00;99.90;;;;;;5087755;28;20477;-78
2022/07/24 05:41:56;;;;;;;0.00;0.00;;;17.10;99.90;;;;;;5087576;28;20080;-78
2022/07/24 05:44:22;;;;;;;0.10;0.10;;;17.30;99.90;;;;;;5087544;28;20048;-78
2022/07/24 05:46:48;;;;;;;0.00;0.00;;;17.40;99.90;;;;;;5037246;28;20103;-78
2022/07/24 05:49:13;;;;;;;0.00;0.00;;;17.50;99.90;;;;;;5087484;28;20049;-78
2022/07/24 05:51:39;;;;;;;0.00;0.00;;;17.70;99.90;;;;;;5070910;28;20106;-78
2022/07/24 05:54:05;;;;;;;0.00;0.00;;;17.80;99.90;;;;;;5087476;28;20506;-78
2022/07/24 05:56:31;;;;;;;0.00;0.00;;;17.80;99.90;;;;;;5070320;28;20057;-78
2022/07/24 05:58:56;;;;;;;0.10;0.08;;;18.00;99.90;;;;;;5086832;28;20061;-78
2022/07/24 06:01:22;;;;;;;0.03;0.03;;;18.00;99.90;;;;;;5087011;28;20409;-78
2022/07/24 06:03:48;;;;;;;0.00;0.00;;;18.10;99.90;;;;;;5087511;28;20041;-78
2022/07/24 06:06:14;;;;;;;0.00;0.00;;;18.10;99.90;;;;;;5087493;28;20045;-78
2022/07/24 06:08:39;;;;;;;0.57;0.57;;;18.20;99.90;;;;;;5070798;28;20409;-78
2022/07/24 06:11:05;;;;;;;0.03;0.00;;;18.30;99.90;;;;;;5069928;28;20059;-77
2022/07/24 06:13:31;;;;;;;0.47;0.47;;;18.40;99.90;;;;;;5087727;28;20045;-78
2022/07/24 06:15:57;;;;;;;0.00;0.00;;;18.50;99.90;;;;;;5070404;28;20106;-77
2022/07/24 06:18:23;;;;;;;0.20;0.20;;;18.50;99.90;;;;;;5087686;28;20045;-77
2022/07/24 06:20:48;;;;;;;0.40;0.35;;;18.60;99.90;;;;;;5086884;28;20052;-78
2022/07/24 06:23:14;;;;;;;0.10;0.00;;;18.70;99.90;;;;;;5087265;28;20049;-77
2022/07/24 06:25:40;;;;;;;0.10;0.10;;;18.70;99.90;;;;;;5070322;28;20505;-77
2022/07/24 06:28:05;;;;;;;0.20;0.15;;;18.80;99.90;;;;;;5053463;28;20448;-78
2022/07/24 06:30:31;;;;;;;0.40;0.40;;;18.80;99.90;;;;;;5070447;28;20099;-78
2022/07/24 06:32:58;;;;;;;0.00;0.00;;;18.90;99.90;;;;;;5070284;28;20049;-78
2022/07/24 06:35:25;;;;;;;0.63;0.45;;;18.90;99.90;;;;;;5069867;28;20048;-78
2022/07/24 06:37:50;;;;;;;0.05;0.05;;;18.90;99.90;;;;;;5080246;28;20045;-77
2022/07/24 06:40:17;;;;;;;0.13;0.13;;;18.90;99.90;;;;;;5069341;28;20083;-77
2022/07/24 06:42:47;;;;;;;0.10;0.10;;;19.00;99.90;;;;;;5069346;28;20552;-78
2022/07/24 06:45:13;;;;;;;0.00;0.00;;;19.00;99.90;;;;;;5070351;28;20069;-77
2022/07/24 06:47:40;;;;;;;0.00;0.00;;;19.10;99.90;;;;;;5052163;28;20067;-77
2022/07/24 06:50:06;;;;;;;1.08;0.43;;;19.10;99.90;;;;;;5069689;28;20458;-77
2022/07/24 06:52:31;;;;;;;0.25;0.25;;;19.20;99.90;;;;;;5086513;28;20083;-77
2022/07/24 06:54:57;;;;;;;0.08;0.08;;;19.30;99.90;;;;;;5069302;28;20404;-77
2022/07/24 06:57:25;;;;;;;0.10;0.10;;;19.30;99.90;;;;;;5086285;28;20110;-77
2022/07/24 06:59:52;;;;;;;0.10;0.10;;;19.40;99.90;;;;;;5070259;28;20141;-77
2022/07/24 07:02:18;;;;;;;0.25;0.10;;;19.50;99.90;;;;;;5069260;28;20131;-77
2022/07/24 07:04:44;;;;;;;0.10;0.10;;;19.60;99.90;;;;;;5069490;28;20416;-77
2022/07/24 07:07:10;;;;;;;0.10;0.05;;;19.70;99.90;;;;;;5086472;28;20041;-77
2022/07/24 07:09:36;;;;;;;0.17;0.17;;;19.80;99.90;;;;;;5086218;28;20084;-77
2022/07/24 07:12:05;;;;;;;1.23;0.30;;;19.90;99.90;;;;;;5069358;28;20045;-77
2022/07/24 07:14:30;;;;;;;0.00;0.00;;;19.90;99.90;;;;;;5067963;28;20098;-78
2022/07/24 07:16:56;;;;;;;0.00;0.00;;;20.00;99.90;;;;;;5050105;28;20049;-77
2022/07/24 07:19:22;;;;;;;0.80;0.80;;;20.10;99.90;;;;;;5050542;28;20045;-78
2022/07/24 07:21:47;;;;;;;0.00;0.00;;;20.20;99.90;;;;;;5033581;28;20130;-77
2022/07/24 07:24:13;;;;;;;0.90;0.65;;;20.20;99.90;;;;;;5033660;28;20475;-78
2022/07/24 07:26:39;;;;;;;0.03;0.00;;;20.30;99.90;;;;;;5050547;28;20488;-78
2022/07/24 07:29:04;;;;;;;0.10;0.10;;;20.40;99.90;;;;;;5050158;28;20079;-78
2022/07/24 07:31:30;;;;;;;0.10;0.10;;;20.50;99.90;;;;;;5050481;28;20071;-78
2022/07/24 07:33:57;;;;;;;0.10;0.10;;;20.70;99.90;;;;;;5049929;28;20056;-78
2022/07/24 07:36:23;;;;;;;0.20;0.10;;;20.80;99.90;;;;;;5033787;28;20068;-78
2022/07/24 07:38:49;;;;;;;0.00;0.00;;;20.90;99.90;;;;;;5050758;28;20048;-78
2022/07/24 07:41:14;;;;;;;0.32;0.00;;;21.00;99.90;;;;;;5032811;28;20053;-79
2022/07/24 07:43:41;;;;;;;0.20;0.20;;;21.10;99.90;;;;;;5033305;28;20061;-78
2022/07/24 07:46:07;;;;;;;0.20;0.10;;;21.20;99.90;;;;;;5050490;28;20049;-78
2022/07/24 07:48:32;;;;;;;0.20;0.10;;;21.30;99.90;;;;;;5033773;28;20092;-79
2022/07/24 07:50:59;;;;;;;0.00;0.00;;;21.40;99.90;;;;;;5049136;28;20121;-80
2022/07/24 07:53:24;;;;;;;0.10;0.03;;;21.50;99.90;;;;;;5032857;28;20126;-79
2022/07/24 07:55:52;;;;;;;0.00;0.00;;;21.50;99.90;;;;;;5033720;28;20060;-78
2022/07/24 07:58:19;;;;;;;0.00;0.00;;;21.60;99.90;;;;;;5050556;28;20061;-78
2022/07/24 08:00:44;;;;;;;0.95;0.55;;;21.70;99.90;;;;;;5040284;28;20045;-78
2022/07/24 08:03:10;;;;;;;0.65;0.38;;;21.80;99.90;;;;;;5056198;28;20562;-78
2022/07/24 08:05:36;;;;;;;0.10;0.10;;;22.00;99.90;;;;;;5056119;28;20080;-78
2022/07/24 08:08:01;;;;;;;0.43;0.43;;;22.00;99.90;;;;;;5056009;28;20051;-79
2022/07/24 08:10:27;;;;;;;0.20;0.10;;;22.10;99.90;;;;;;5039019;28;20377;-78
2022/07/24 08:12:53;;;;;;;0.93;0.50;;;22.20;99.90;;;;;;5038181;28;20127;-78
2022/07/24 08:15:19;;;;;;;0.20;0.20;;;22.30;99.90;;;;;;5039602;28;20401;-78
2022/07/24 08:17:45;;;;;;;0.10;0.10;;;22.30;99.90;;;;;;5039258;28;20041;-78
2022/07/24 08:20:11;;;;;;;0.05;0.05;;;22.50;99.90;;;;;;5039267;28;20060;-78
2022/07/24 08:22:37;;;;;;;0.30;0.30;;;22.60;99.90;;;;;;5055376;28;20094;-78
2022/07/24 08:25:03;;;;;;;0.03;0.03;;;22.70;99.90;;;;;;5039059;28;20139;-78
2022/07/24 08:27:29;;;;;;;0.00;0.00;;;22.80;99.90;;;;;;5055678;28;20099;-78
2022/07/24 08:29:54;;;;;;;0.10;0.10;;;22.90;99.90;;;;;;5055915;28;20565;-78
2022/07/24 08:32:20;;;;;;;0.00;0.00;;;23.00;99.90;;;;;;5055201;28;20036;-78
2022/07/24 08:34:46;;;;;;;0.38;0.20;;;23.00;99.90;;;;;;5038907;28;20149;-78
2022/07/24 08:37:12;;;;;;;0.13;0.13;;;23.10;99.90;;;;;;5038694;28;20092;-79
2022/07/24 08:39:38;;;;;;;0.75;0.32;;;23.20;99.90;;;;;;5054904;28;20441;-78
2022/07/24 08:42:03;;;;;;;0.10;0.10;;;23.30;99.90;;;;;;5038841;28;20088;-78
2022/07/24 08:44:29;;;;;;;0.50;0.45;;;23.30;99.90;;;;;;5038573;28;20059;-78
2022/07/24 08:46:58;;;;;;;0.00;0.00;;;23.40;99.90;;;;;;5039350;28;20057;-79
2022/07/24 08:49:26;;;;;;;0.10;0.10;;;23.50;99.90;;;;;;5055278;28;20041;-79
2022/07/24 08:51:53;;;;;;;0.20;0.20;;;23.60;99.90;;;;;;5054963;28;20052;-78
2022/07/24 08:54:19;;;;;;;0.10;0.10;;;23.70;99.90;;;;;;5054790;28;20408;-79
2022/07/24 08:56:45;;;;;;;0.15;0.15;;;23.70;99.80;;;;;;5038523;28;20048;-78
2022/07/24 08:59:21;;;;;;;0.00;0.00;;;23.80;99.70;;;;;;5038246;28;20138;-78
2022/07/24 09:01:48;;;;;;;0.10;0.10;;;23.80;99.90;;;;;;5054885;28;20548;-78
2022/07/24 09:04:40;;;;;;;0.00;0.00;;;23.70;99.90;;;;;;5038416;28;20511;-78
2022/07/24 09:07:10;;;;;;;0.20;0.20;;;23.80;99.70;;;;;;5055208;28;20512;-78
2022/07/24 09:09:37;;;;;;;0.30;0.10;;;23.90;99.90;;;;;;5038129;28;20102;-78
2022/07/24 09:12:23;;;;;;;0.00;0.00;;;24.00;99.90;;;;;;5054186;28;20044;-79
2022/07/24 09:14:49;;;;;;;0.00;0.00;;;24.20;99.90;;;;;;5054075;28;20439;-79
2022/07/24 09:17:18;;;;;;;0.08;0.08;;;24.30;99.00;;;;;;5054497;28;20037;-78
2022/07/24 09:19:48;;;;;;;0.00;0.00;;;24.50;99.30;;;;;;5055309;28;20067;-78
2022/07/24 09:22:37;;;;;;;0.00;0.00;;;24.60;98.00;;;;;;5037894;28;20044;-79
2022/07/24 09:25:13;;;;;;;0.00;0.00;;;24.70;97.60;;;;;;5038310;28;20067;-78
2022/07/24 09:27:45;;;;;;;0.00;0.00;;;24.80;97.30;;;;;;5038277;28;20045;-79
2022/07/24 09:30:34;;;;;;;0.13;0.10;;;24.90;97.00;;;;;;5038397;28;20053;-79
2022/07/24 09:33:27;;;;;;;0.10;0.10;;;25.00;97.40;;;;;;5037983;28;20041;-78
2022/07/24 09:35:53;;;;;;;0.00;0.00;;;25.20;96.60;;;;;;5035652;28;20451;-78
2022/07/24 09:38:23;;;;;;;0.00;0.00;;;25.20;97.30;;;;;;5054331;28;20051;-79
2022/07/24 09:40:54;;;;;;;0.00;0.00;;;25.40;97.60;;;;;;5037893;28;20049;-79
2022/07/24 09:43:27;;;;;;;0.00;0.00;;;25.40;97.30;;;;;;5037892;28;20092;-78
2022/07/24 09:45:57;;;;;;;0.08;0.00;;;25.50;96.50;;;;;;5054168;28;20056;-78
2022/07/24 09:48:31;;;;;;;0.00;0.00;;;25.60;97.50;;;;;;5054107;28;20049;-78
2022/07/24 09:50:59;;;;;;;0.07;0.07;;;25.60;95.30;;;;;;5054703;28;20052;-78
2022/07/24 09:53:27;;;;;;;0.00;0.00;;;25.70;94.70;;;;;;5037582;28;20064;-78
2022/07/24 09:56:02;;;;;;;0.00;0.00;;;25.80;95.00;;;;;;5054050;28;20044;-79
2022/07/24 09:58:30;;;;;;;0.00;0.00;;;26.00;96.10;;;;;;5037230;28;20434;-78
2022/07/24 10:00:57;;;;;;;0.00;0.00;;;26.10;94.60;;;;;;5054230;28;20420;-78
2022/07/24 10:03:29;;;;;;;0.00;0.00;;;26.10;93.10;;;;;;5054148;28;20033;-79
2022/07/24 10:06:00;;;;;;;0.00;0.00;;;26.20;94.50;;;;;;5037438;28;20081;-80
2022/07/24 10:08:27;;;;;;;0.00;0.00;;;26.20;93.10;;;;;;5037248;28;20492;-79
2022/07/24 10:10:54;;;;;;;0.00;0.00;;;26.30;93.50;;;;;;5053959;28;20072;-80
2022/07/24 10:13:20;;;;;;;0.00;0.00;;;26.30;91.80;;;;;;5053613;28;20049;-79
2022/07/24 10:16:12;;;;;;;0.10;0.00;;;26.40;92.80;;;;;;5037081;28;20048;-79
2022/07/24 10:18:56;;;;;;;0.00;0.00;;;26.50;92.20;;;;;;5035031;28;20057;-79
2022/07/24 10:21:31;;;;;;;0.00;0.00;;;26.50;90.70;;;;;;5036765;28;20057;-79
2022/07/24 10:24:26;;;;;;;0.00;0.00;;;26.50;91.40;;;;;;5036937;28;20045;-79
2022/07/24 10:26:58;;;;;;;0.00;0.00;;;26.60;90.90;;;;;;5037410;28;20143;-79
2022/07/24 10:29:24;;;;;;;0.00;0.00;;;26.70;88.80;;;;;;5036893;28;20096;-79
2022/07/24 10:31:56;;;;;;;0.00;0.00;;;26.80;90.50;;;;;;5053266;28;20132;-79
2022/07/24 10:34:29;;;;;;;0.00;0.00;;;26.80;90.40;;;;;;5053239;28;20059;-80
2022/07/24 10:37:23;;;;;;;0.03;0.00;;;26.70;89.60;;;;;;5053395;28;20049;-79
2022/07/24 10:40:13;;;;;;;0.00;0.00;;;26.60;91.20;;;;;;5036818;28;20158;-79
2022/07/24 10:43:08;;;;;;;0.00;0.00;;;26.60;91.70;;;;;;5036461;28;20041;-79
2022/07/24 10:45:36;;;;;;;0.00;0.00;;;26.80;90.90;;;;;;5052765;28;20475;-79
2022/07/24 10:48:20;;;;;;;0.00;0.00;;;27.00;90.40;;;;;;5053662;28;20472;-79
2022/07/24 10:51:01;;;;;;;0.00;0.00;;;27.10;90.00;;;;;;5034631;28;20492;-79
2022/07/24 10:53:30;;;;;;;5.57;0.43;;;27.20;90.40;;;;;;5051031;28;20060;-79
2022/07/24 10:56:30;;;;;;;0.00;0.00;;;27.40;87.50;;;;;;5052580;28;20044;-79
2022/07/24 10:59:11;;;;;;;0.00;0.00;;;27.50;89.80;;;;;;5052329;28;20060;-79
2022/07/24 11:01:50;;;;;;;0.00;0.00;;;27.60;90.00;;;;;;5053362;28;20492;-79
2022/07/24 11:04:19;;;;;;;0.10;0.00;;;27.90;90.40;;;;;;5052709;28;20052;-79
2022/07/24 11:06:47;;;;;;;0.38;0.13;;;28.10;88.80;;;;;;5052811;28;20508;-79
2022/07/24 11:09:14;;;;;;;0.00;0.00;;;28.20;86.60;;;;;;5052747;28;20126;-79
2022/07/24 11:12:00;;;;;;;0.00;0.00;;;28.10;82.20;;;;;;5035974;28;20107;-79
2022/07/24 11:14:45;;;;;;;0.10;0.00;;;28.20;84.60;;;;;;5035354;28;20045;-80
2022/07/24 11:17:37;;;;;;;0.00;0.00;;;28.10;84.40;;;;;;5036050;28;20183;-78
2022/07/24 11:20:05;;;;;;;0.00;0.00;;;28.00;83.80;;;;;;5052478;28;20084;-79
2022/07/24 11:22:43;;;;;;;0.25;0.25;;;27.90;84.70;;;;;;5052344;28;20056;-79
2022/07/24 11:25:13;;;;;;;0.00;0.00;;;28.00;86.60;;;;;;5036413;28;20094;-79
2022/07/24 11:27:47;;;;;;;0.10;0.10;;;28.30;88.00;;;;;;5052882;28;20045;-79
2022/07/24 11:30:13;;;;;;;;;;;28.50;87.40;;;;;;5036453;28;20131;-78
2022/07/24 11:32:41;;;;;;;0.00;0.00;;;28.40;83.10;;;;;;5052463;28;19921;-78
2022/07/24 11:35:08;;;;;;;0.00;0.00;;;28.50;80.60;;;;;;5039409;28;20080;-79
2022/07/24 11:37:38;;;;;;;0.00;0.00;;;28.60;82.80;;;;;;5039846;28;20059;-78
2022/07/24 11:40:07;;;;;;;0.00;0.00;;;28.60;83.00;;;;;;5056878;28;20071;-78
2022/07/24 11:42:33;;;;;;;0.00;0.00;;;28.50;82.20;;;;;;5039715;28;20373;-78
2022/07/24 11:45:00;;;;;;;0.00;0.00;;;28.60;82.20;;;;;;5056403;28;20136;-78
2022/07/24 11:47:27;;;;;;;0.00;0.00;;;28.70;83.30;;;;;;5056429;28;20053;-79
2022/07/24 11:49:59;;;;;;;0.08;0.08;;;28.70;80.60;;;;;;5039566;28;20041;-79
2022/07/24 11:52:26;;;;;;;0.00;0.00;;;28.70;78.30;;;;;;5039750;28;20084;-79
2022/07/24 11:54:54;;;;;;;0.05;0.05;;;28.70;78.70;;;;;;5056411;28;20591;-78
2022/07/24 11:57:29;;;;;;;0.00;0.00;;;28.70;79.70;;;;;;5056022;28;20052;-80
2022/07/24 11:59:55;;;;;;;0.00;0.00;;;28.80;74.80;;;;;;5040339;28;20049;-79
2022/07/24 12:02:21;;;;;;;0.00;0.00;;;28.90;76.30;;;;;;5039327;28;20389;-79
2022/07/24 12:04:48;;;;;;;0.00;0.00;;;29.00;76.40;;;;;;5056150;28;20044;-80
2022/07/24 12:07:24;;;;;;;0.00;0.00;;;29.10;73.50;;;;;;5039414;28;20061;-79
2022/07/24 12:09:53;;;;;;;0.00;0.00;;;29.20;74.20;;;;;;5056094;28;20048;-80
2022/07/24 12:12:33;;;;;;;0.00;0.00;;;29.40;76.60;;;;;;5040209;28;20057;-79
2022/07/24 12:15:11;;;;;;;0.20;0.20;;;29.40;74.40;;;;;;5039552;28;20063;-80
2022/07/24 12:17:57;;;;;;;0.00;0.00;;;29.30;73.20;;;;;;5039454;28;20518;-80
2022/07/24 12:20:25;;;;;;;0.10;0.10;;;29.40;77.90;;;;;;5055816;28;20040;-80
2022/07/24 12:22:51;;;;;;;0.00;0.00;;;29.40;73.80;;;;;;5038687;28;20041;-80
2022/07/24 12:25:18;;;;;;;0.00;0.00;;;29.40;75.00;;;;;;5055704;28;20190;-80
2022/07/24 12:27:47;;;;;;;0.15;0.10;;;29.50;74.00;;;;;;5039248;28;20064;-80
2022/07/24 12:30:17;;;;;;;0.00;0.00;;;29.50;74.60;;;;;;5055519;28;20036;-80
2022/07/24 12:32:54;;;;;;;0.40;0.10;;;29.50;74.40;;;;;;5055379;28;20044;-80
2022/07/24 12:35:20;;;;;;;0.00;0.00;;;29.50;72.10;;;;;;5055425;28;20149;-80
2022/07/24 12:37:45;;;;;;;0.10;0.10;;;29.50;71.50;;;;;;5055295;28;20087;-80
2022/07/24 12:40:35;;;;;;;0.00;0.00;;;29.50;73.60;;;;;;5055332;28;20088;-80
2022/07/24 12:43:10;;;;;;;8.27;0.30;;;29.60;74.60;;;;;;5055086;28;20045;-80
2022/07/24 12:45:37;;;;;;;0.00;0.00;;;29.50;72.30;;;;;;5038663;28;20569;-80
2022/07/24 12:48:07;;;;;;;0.00;0.00;;;29.50;73.90;;;;;;5054993;28;20085;-80
2022/07/24 12:50:32;;;;;;;0.00;0.00;;;29.60;72.50;;;;;;5038496;28;20064;-80
2022/07/24 12:53:06;;;;;;;0.15;0.00;;;29.60;74.80;;;;;;5055137;28;20484;-80